Time;durP1;ratioP1;P1;durP2;ratioP2;P2;SDS_P1;SDS_P2;PMS_P1;PMS_P2;Temp;Humidity;BMP_temperature;BMP_pressure;BME280_temperature;BME280_humidity;BME280_pressure;Samples;Min_cycle;Max_cycle;Signal;HPM_P1;HPM_P2
2022/01/02 00:00:41;;;;;;;42.72;28.83;;;;;;;;;;5012156;28;20060;-65
2022/01/02 00:03:19;;;;;;;42.42;28.55;;;;;;;;;;5008828;28;20318;-69
2022/01/02 00:05:45;;;;;;;41.17;27.02;;;;;;;;;;5010374;28;20524;-66
2022/01/02 00:08:12;;;;;;;42.30;27.30;;;;;;;;;;5034324;28;20503;-65
2022/01/02 00:10:57;;;;;;;42.13;27.08;;;;;;;;;;5031736;28;20463;-72
2022/01/02 00:13:29;;;;;;;43.03;26.83;;;;;;;;;;5033134;28;20149;-68
2022/01/02 00:15:56;;;;;;;37.70;25.77;;;;;;;;;;5029662;28;20080;-72
2022/01/02 00:18:27;;;;;;;38.22;25.25;;;;;;;;;;5015261;28;20769;-64
2022/01/02 00:20:55;;;;;;;39.05;24.85;;;;;;;;;;5028004;28;20053;-68
2022/01/02 00:23:29;;;;;;;39.38;23.48;;;;;;;;;;5010753;28;20507;-66
2022/01/02 00:25:58;;;;;;;35.83;23.55;;;;;;;;;;4997395;28;20060;-65
2022/01/02 00:28:27;;;;;;;34.70;23.52;;;;;;;;;;5031419;28;20053;-67
2022/01/02 00:30:53;;;;;;;36.88;23.20;;;;;;;;;;5010550;28;20053;-65
2022/01/02 00:33:23;;;;;;;35.83;23.70;;;;;;;;;;5012932;28;20102;-67
2022/01/02 00:35:50;;;;;;;35.72;23.35;;;;;;;;;;5031194;28;20413;-67
2022/01/02 00:38:20;;;;;;;30.77;22.65;;;;;;;;;;5033394;28;20136;-64
2022/01/02 00:40:49;;;;;;;33.33;22.08;;;;;;;;;;5028593;28;20132;-63
2022/01/02 00:43:26;;;;;;;36.97;23.40;;;;;;;;;;5030579;28;20663;-70
2022/01/02 00:45:54;;;;;;;33.25;21.52;;;;;;;;;;4998927;28;20122;-66
2022/01/02 00:48:26;;;;;;;31.77;21.73;;;;;;;;;;5036080;28;20251;-64
2022/01/02 00:51:01;;;;;;;35.75;22.83;;;;;;;;;;5032228;28;20110;-65
2022/01/02 00:53:33;;;;;;;34.40;23.30;;;;;;;;;;5016154;28;20115;-68
2022/01/02 00:56:01;;;;;;;32.67;22.23;;;;;;;;;;5035689;28;20045;-69
2022/01/02 00:58:44;;;;;;;33.03;21.95;;;;;;;;;;5003591;28;20128;-67
2022/01/02 01:01:15;;;;;;;29.65;20.35;;;;;;;;;;5035850;28;20053;-66
2022/01/02 01:03:42;;;;;;;29.02;20.73;;;;;;;;;;5039168;28;20045;-68
2022/01/02 01:06:10;;;;;;;31.63;20.95;;;;;;;;;;5038260;28;20044;-65
2022/01/02 01:08:40;;;;;;;29.27;19.98;;;;;;;;;;5041574;28;20045;-69
2022/01/02 01:11:11;;;;;;;36.90;20.67;;;;;;;;;;5036431;28;20056;-67
2022/01/02 01:13:37;;;;;;;28.88;19.42;;;;;;;;;;5038249;28;20137;-67
2022/01/02 01:16:03;;;;;;;31.90;20.50;;;;;;;;;;5021073;28;20048;-65
2022/01/02 01:18:30;;;;;;;29.45;18.80;;;;;;;;;;5039355;28;20334;-68
2022/01/02 01:20:56;;;;;;;30.77;19.80;;;;;;;;;;5016350;28;20101;-65
2022/01/02 01:23:22;;;;;;;31.65;19.85;;;;;;;;;;5019122;28;20077;-67
2022/01/02 01:25:49;;;;;;;29.30;19.25;;;;;;;;;;5021853;28;20049;-65
2022/01/02 01:28:17;;;;;;;27.33;18.95;;;;;;;;;;5034773;28;20151;-66
2022/01/02 01:30:44;;;;;;;29.33;19.33;;;;;;;;;;5011732;28;20518;-65
2022/01/02 01:33:11;;;;;;;29.50;19.30;;;;;;;;;;5037467;28;20049;-66
2022/01/02 01:35:37;;;;;;;29.85;19.15;;;;;;;;;;5002595;28;20442;-68
2022/01/02 01:38:03;;;;;;;24.85;17.88;;;;;;;;;;5035122;28;20044;-64
2022/01/02 01:40:38;;;;;;;26.15;17.27;;;;;;;;;;4991194;28;20056;-69
2022/01/02 01:43:05;;;;;;;26.95;17.45;;;;;;;;;;5015887;28;20081;-68
2022/01/02 01:45:31;;;;;;;25.20;18.45;;;;;;;;;;5019539;28;20540;-66
2022/01/02 01:48:03;;;;;;;25.90;17.23;;;;;;;;;;5038605;28;20084;-70
2022/01/02 01:50:32;;;;;;;24.80;17.50;;;;;;;;;;5016602;28;20048;-69
2022/01/02 01:52:58;;;;;;;27.73;17.10;;;;;;;;;;5034024;28;20552;-68
2022/01/02 01:55:24;;;;;;;30.27;16.95;;;;;;;;;;4996120;28;20052;-66
2022/01/02 01:57:52;;;;;;;24.73;17.15;;;;;;;;;;5034830;28;20057;-66
2022/01/02 02:00:21;;;;;;;28.92;17.20;;;;;;;;;;5030991;28;20055;-73
2022/01/02 02:02:48;;;;;;;25.15;16.27;;;;;;;;;;5017919;28;20064;-65
2022/01/02 02:05:15;;;;;;;22.70;16.95;;;;;;;;;;5035372;28;20731;-65
2022/01/02 02:07:43;;;;;;;29.38;16.77;;;;;;;;;;5020629;28;20423;-65
2022/01/02 02:10:15;;;;;;;28.55;16.05;;;;;;;;;;5034116;28;20060;-70
2022/01/02 02:12:47;;;;;;;24.23;16.02;;;;;;;;;;5035424;28;20630;-65
2022/01/02 02:15:16;;;;;;;25.08;15.75;;;;;;;;;;5016916;28;20045;-67
2022/01/02 02:17:44;;;;;;;23.65;14.05;;;;;;;;;;5034622;28;20140;-66
2022/01/02 02:20:20;;;;;;;21.98;14.38;;;;;;;;;;5032334;28;20052;-65
2022/01/02 02:22:50;;;;;;;26.02;14.90;;;;;;;;;;5015719;28;20057;-67
2022/01/02 02:25:21;;;;;;;23.50;14.73;;;;;;;;;;5034730;28;20064;-67
2022/01/02 02:27:55;;;;;;;27.13;15.32;;;;;;;;;;5032486;28;20053;-65
2022/01/02 02:30:23;;;;;;;23.02;15.48;;;;;;;;;;5013716;28;20053;-68
2022/01/02 02:32:49;;;;;;;22.38;15.38;;;;;;;;;;5033367;28;20545;-66
2022/01/02 02:35:16;;;;;;;22.38;14.35;;;;;;;;;;5033023;28;20167;-66
2022/01/02 02:37:44;;;;;;;21.15;14.93;;;;;;;;;;5033873;28;20049;-66
2022/01/02 02:40:14;;;;;;;21.98;14.27;;;;;;;;;;5030798;28;20157;-64
2022/01/02 02:50:48;;;;;;;22.85;13.60;;;;;;;;;;5034382;28;20151;-65
2022/01/02 02:53:16;;;;;;;22.02;13.40;;;;;;;;;;5035267;28;20052;-66
2022/01/02 02:55:47;;;;;;;21.30;13.57;;;;;;;;;;4999161;28;20502;-68
2022/01/02 03:01:02;;;;;;;21.67;13.57;;;;;;;;;;5031281;28;20594;-65
2022/01/02 03:03:28;;;;;;;23.73;13.20;;;;;;;;;;4999911;28;20406;-68
2022/01/02 03:05:55;;;;;;;19.05;12.35;;;;;;;;;;5033288;28;20049;-63
2022/01/02 03:08:21;;;;;;;19.30;12.60;;;;;;;;;;5034137;28;20061;-64
2022/01/02 03:10:47;;;;;;;26.83;13.23;;;;;;;;;;5032334;28;20037;-65
2022/01/02 03:13:14;;;;;;;25.85;13.07;;;;;;;;;;5033037;28;20048;-63
2022/01/02 03:15:40;;;;;;;21.83;12.60;;;;;;;;;;5011807;28;20167;-67
2022/01/02 03:18:06;;;;;;;24.55;12.77;;;;;;;;;;5032554;28;20057;-71
2022/01/02 03:20:32;;;;;;;17.98;12.40;;;;;;;;;;5029796;28;20047;-67
2022/01/02 03:22:59;;;;;;;22.33;12.88;;;;;;;;;;5018977;28;20064;-68
2022/01/02 03:25:25;;;;;;;16.20;12.35;;;;;;;;;;5038522;28;20422;-65
2022/01/02 03:27:51;;;;;;;23.20;13.63;;;;;;;;;;4999494;28;20842;-64
2022/01/02 03:30:17;;;;;;;18.38;12.68;;;;;;;;;;5028249;28;20082;-67
2022/01/02 03:32:43;;;;;;;22.17;12.98;;;;;;;;;;5029768;28;20149;-67
2022/01/02 03:35:10;;;;;;;18.88;12.20;;;;;;;;;;5030069;28;20430;-65
2022/01/02 03:37:37;;;;;;;20.90;13.23;;;;;;;;;;5014559;28;20045;-66
2022/01/02 03:40:05;;;;;;;18.55;12.25;;;;;;;;;;5028147;28;20080;-65
2022/01/02 03:42:32;;;;;;;19.02;11.98;;;;;;;;;;5011897;28;20524;-66
2022/01/02 03:44:59;;;;;;;19.90;12.48;;;;;;;;;;5031681;28;20041;-65
2022/01/02 03:47:26;;;;;;;19.70;12.15;;;;;;;;;;5013111;28;20099;-67
2022/01/02 03:49:52;;;;;;;16.73;11.35;;;;;;;;;;5009625;28;20612;-67
2022/01/02 03:52:18;;;;;;;24.48;11.35;;;;;;;;;;5014248;28;20096;-68
2022/01/02 03:54:45;;;;;;;22.73;11.63;;;;;;;;;;5030434;28;20041;-64
2022/01/02 03:57:11;;;;;;;16.40;11.60;;;;;;;;;;5030930;28;20049;-66
2022/01/02 03:59:38;;;;;;;18.05;12.00;;;;;;;;;;5014884;28;20045;-66
2022/01/02 04:02:06;;;;;;;18.02;11.82;;;;;;;;;;5018570;28;20041;-71
2022/01/02 04:04:32;;;;;;;18.13;11.73;;;;;;;;;;5016007;28;20106;-66
2022/01/02 04:06:58;;;;;;;20.13;11.50;;;;;;;;;;5013284;28;20056;-67
2022/01/02 04:09:24;;;;;;;22.67;11.68;;;;;;;;;;4996548;28;20689;-69
2022/01/02 04:11:50;;;;;;;16.52;11.00;;;;;;;;;;5016230;28;20057;-70
2022/01/02 04:14:17;;;;;;;19.05;11.93;;;;;;;;;;5034336;28;20055;-67
2022/01/02 04:16:43;;;;;;;18.20;12.10;;;;;;;;;;5034771;28;20422;-65
2022/01/02 04:19:09;;;;;;;21.00;12.02;;;;;;;;;;4998302;28;20048;-67
2022/01/02 04:21:36;;;;;;;19.67;11.77;;;;;;;;;;5029383;28;20052;-65
2022/01/02 04:24:02;;;;;;;17.25;11.52;;;;;;;;;;5015806;28;20099;-64
2022/01/02 04:26:28;;;;;;;20.90;11.30;;;;;;;;;;5016641;28;20896;-65
2022/01/02 04:28:54;;;;;;;15.45;11.02;;;;;;;;;;5016949;28;20072;-67
2022/01/02 04:31:20;;;;;;;19.42;11.68;;;;;;;;;;4998065;28;20414;-64
2022/01/02 04:33:47;;;;;;;16.27;11.20;;;;;;;;;;5034035;28;20550;-65
2022/01/02 04:36:13;;;;;;;16.27;11.43;;;;;;;;;;5035503;28;20172;-65
2022/01/02 04:38:41;;;;;;;18.75;11.43;;;;;;;;;;5016294;28;20084;-68
2022/01/02 04:41:09;;;;;;;19.15;12.02;;;;;;;;;;5033593;28;20494;-68
2022/01/02 04:43:35;;;;;;;16.70;11.15;;;;;;;;;;5016403;28;20107;-69
2022/01/02 04:46:02;;;;;;;16.88;10.98;;;;;;;;;;5033786;28;20114;-66
2022/01/02 04:48:28;;;;;;;15.98;10.95;;;;;;;;;;5034123;28;20304;-66
2022/01/02 04:50:54;;;;;;;15.10;11.48;;;;;;;;;;5014951;28;20057;-64
2022/01/02 04:53:21;;;;;;;18.88;10.63;;;;;;;;;;5016575;28;20548;-65
2022/01/02 04:55:48;;;;;;;20.63;11.75;;;;;;;;;;5015974;28;20491;-64
2022/01/02 04:58:14;;;;;;;16.08;11.43;;;;;;;;;;5034765;28;20077;-64
2022/01/02 05:00:41;;;;;;;17.45;11.68;;;;;;;;;;5031579;28;20044;-65
2022/01/02 05:03:07;;;;;;;18.05;11.65;;;;;;;;;;5037667;28;20140;-67
2022/01/02 05:05:33;;;;;;;17.67;12.10;;;;;;;;;;5014786;28;20608;-67
2022/01/02 05:07:59;;;;;;;16.30;11.13;;;;;;;;;;5034211;28;20430;-68
2022/01/02 05:10:26;;;;;;;13.73;10.05;;;;;;;;;;5033182;28;20045;-66
2022/01/02 05:12:52;;;;;;;17.90;10.25;;;;;;;;;;5031758;28;20163;-67
2022/01/02 05:15:18;;;;;;;16.05;10.52;;;;;;;;;;5033549;28;20057;-65
2022/01/02 05:17:45;;;;;;;15.13;10.05;;;;;;;;;;5016707;28;20045;-64
2022/01/02 05:20:11;;;;;;;18.10;10.65;;;;;;;;;;5030475;28;20426;-67
2022/01/02 05:22:37;;;;;;;14.32;9.50;;;;;;;;;;5016728;28;20049;-65
2022/01/02 05:25:05;;;;;;;13.57;9.23;;;;;;;;;;5032767;28;20048;-66
2022/01/02 05:27:31;;;;;;;15.18;9.63;;;;;;;;;;5017144;28;20077;-71
2022/01/02 05:29:57;;;;;;;18.73;9.95;;;;;;;;;;5009933;28;20411;-64
2022/01/02 05:32:23;;;;;;;17.88;9.40;;;;;;;;;;5029290;28;20049;-64
2022/01/02 05:34:49;;;;;;;13.35;8.82;;;;;;;;;;5012674;28;20049;-66
2022/01/02 05:37:16;;;;;;;15.82;9.40;;;;;;;;;;5013433;28;20059;-65
2022/01/02 05:39:42;;;;;;;14.05;9.02;;;;;;;;;;5028508;28;20049;-68
2022/01/02 05:42:09;;;;;;;18.10;10.25;;;;;;;;;;5034925;28;20600;-68
2022/01/02 05:44:35;;;;;;;16.33;9.43;;;;;;;;;;5034199;28;20043;-70
2022/01/02 05:47:01;;;;;;;13.32;8.50;;;;;;;;;;5003292;28;20057;-69
2022/01/02 05:49:28;;;;;;;12.35;8.90;;;;;;;;;;5035865;28;20045;-64
2022/01/02 05:51:54;;;;;;;14.27;8.57;;;;;;;;;;5034943;28;20178;-65
2022/01/02 05:54:20;;;;;;;14.23;8.82;;;;;;;;;;5013814;28;20485;-64
2022/01/02 05:56:46;;;;;;;16.13;8.65;;;;;;;;;;5035025;28;20403;-63
2022/01/02 05:59:12;;;;;;;15.23;8.43;;;;;;;;;;5014827;28;20055;-69
2022/01/02 06:01:39;;;;;;;15.75;8.80;;;;;;;;;;5013460;28;20045;-67
2022/01/02 06:04:05;;;;;;;12.73;8.18;;;;;;;;;;5031204;28;20045;-68
2022/01/02 06:06:32;;;;;;;13.88;7.90;;;;;;;;;;5015833;28;20099;-65
2022/01/02 06:08:58;;;;;;;11.63;8.15;;;;;;;;;;5034452;28;20493;-62
2022/01/02 06:11:24;;;;;;;11.20;7.15;;;;;;;;;;5031453;28;20159;-69
2022/01/02 06:13:51;;;;;;;11.18;7.72;;;;;;;;;;5033926;28;20497;-65
2022/01/02 06:16:17;;;;;;;12.50;7.93;;;;;;;;;;5032849;28;20080;-66
2022/01/02 06:18:43;;;;;;;10.82;7.88;;;;;;;;;;5016840;28;20045;-64
2022/01/02 06:21:09;;;;;;;14.45;7.32;;;;;;;;;;5032200;28;20072;-65
2022/01/02 06:23:35;;;;;;;13.98;7.47;;;;;;;;;;5000378;28;20351;-65
2022/01/02 06:26:02;;;;;;;12.63;7.07;;;;;;;;;;5017304;28;20060;-68
2022/01/02 06:28:28;;;;;;;11.88;6.90;;;;;;;;;;5016379;28;20052;-67
2022/01/02 06:30:54;;;;;;;11.30;7.00;;;;;;;;;;5030665;28;20144;-66
2022/01/02 06:33:21;;;;;;;13.90;6.32;;;;;;;;;;5034394;28;20084;-65
2022/01/02 06:35:49;;;;;;;9.95;6.80;;;;;;;;;;5001407;28;20518;-69
2022/01/02 06:38:20;;;;;;;9.48;6.72;;;;;;;;;;5034162;28;20128;-65
2022/01/02 06:40:47;;;;;;;11.07;6.30;;;;;;;;;;5013634;28;20041;-65
2022/01/02 06:43:16;;;;;;;11.23;6.55;;;;;;;;;;5014147;28;20045;-66
2022/01/02 06:45:43;;;;;;;12.82;6.55;;;;;;;;;;5028554;28;20090;-68
2022/01/02 06:48:10;;;;;;;12.35;6.82;;;;;;;;;;5032587;28;20049;-68
2022/01/02 06:50:36;;;;;;;11.48;7.18;;;;;;;;;;5011641;28;20180;-66
2022/01/02 06:53:03;;;;;;;10.60;6.70;;;;;;;;;;5001248;28;20523;-66
2022/01/02 06:55:29;;;;;;;11.10;7.13;;;;;;;;;;5035806;28;20475;-65
2022/01/02 06:57:55;;;;;;;11.52;6.75;;;;;;;;;;5033638;28;20052;-66
2022/01/02 07:00:22;;;;;;;11.10;6.47;;;;;;;;;;5012669;28;20746;-64
2022/01/02 07:02:48;;;;;;;10.65;7.07;;;;;;;;;;5034192;28;20132;-68
2022/01/02 07:05:14;;;;;;;9.38;6.75;;;;;;;;;;4999089;28;20063;-66
2022/01/02 07:07:45;;;;;;;12.18;7.18;;;;;;;;;;5035052;28;20514;-70
2022/01/02 07:10:13;;;;;;;10.57;7.20;;;;;;;;;;5029562;28;20489;-65
2022/01/02 07:12:40;;;;;;;9.65;6.65;;;;;;;;;;5032262;28;20051;-67
2022/01/02 07:15:08;;;;;;;12.95;6.90;;;;;;;;;;4999474;28;20102;-68
2022/01/02 07:17:34;;;;;;;11.02;6.85;;;;;;;;;;5014562;28;20589;-65
2022/01/02 07:20:04;;;;;;;11.93;6.93;;;;;;;;;;5014294;28;20053;-67
2022/01/02 07:22:31;;;;;;;13.68;6.95;;;;;;;;;;5033311;28;20052;-64
2022/01/02 07:24:58;;;;;;;10.05;6.85;;;;;;;;;;5015010;28;20057;-66
2022/01/02 07:27:24;;;;;;;13.30;7.10;;;;;;;;;;5016196;28;20071;-65
2022/01/02 07:29:51;;;;;;;11.25;7.40;;;;;;;;;;5027790;28;20087;-66
2022/01/02 07:32:17;;;;;;;10.88;7.05;;;;;;;;;;5032677;28;20088;-65
2022/01/02 07:34:44;;;;;;;18.90;7.60;;;;;;;;;;5014888;28;20576;-68
2022/01/02 07:37:10;;;;;;;11.30;6.85;;;;;;;;;;5017557;28;20073;-65
2022/01/02 07:39:37;;;;;;;15.13;7.45;;;;;;;;;;5016935;28;20061;-66
2022/01/02 07:42:03;;;;;;;11.35;7.55;;;;;;;;;;5031602;28;20061;-67
2022/01/02 07:44:30;;;;;;;11.13;7.18;;;;;;;;;;5014738;28;20087;-69
2022/01/02 07:46:56;;;;;;;13.48;7.20;;;;;;;;;;5015133;28;20724;-64
2022/01/02 07:49:22;;;;;;;13.60;7.20;;;;;;;;;;5030039;28;20052;-67
2022/01/02 07:51:49;;;;;;;11.55;6.68;;;;;;;;;;5032969;28;20567;-67
2022/01/02 07:54:15;;;;;;;12.95;6.97;;;;;;;;;;5035061;28;20076;-64
2022/01/02 07:56:41;;;;;;;10.35;6.88;;;;;;;;;;5036141;28;20051;-69
2022/01/02 07:59:08;;;;;;;11.43;7.00;;;;;;;;;;5038604;28;20387;-65
2022/01/02 08:01:34;;;;;;;12.73;7.20;;;;;;;;;;5015556;28;20160;-69
2022/01/02 08:04:00;;;;;;;11.23;6.57;;;;;;;;;;5020460;28;20151;-67
2022/01/02 08:06:26;;;;;;;11.10;7.10;;;;;;;;;;5036163;28;20076;-65
2022/01/02 08:08:53;;;;;;;13.65;6.75;;;;;;;;;;5036336;28;20059;-68
2022/01/02 08:11:19;;;;;;;11.88;7.45;;;;;;;;;;5035597;28;20073;-69
2022/01/02 08:13:46;;;;;;;12.25;6.95;;;;;;;;;;5038124;28;20060;-66
2022/01/02 08:16:12;;;;;;;9.98;6.50;;;;;;;;;;5001309;28;20126;-66
2022/01/02 08:18:39;;;;;;;15.48;8.20;;;;;;;;;;5020599;28;20045;-68
2022/01/02 08:21:06;;;;;;;13.18;8.07;;;;;;;;;;5017163;28;20278;-69
2022/01/02 08:23:32;;;;;;;13.27;7.65;;;;;;;;;;5037447;28;20060;-69
2022/01/02 08:25:59;;;;;;;11.85;7.60;;;;;;;;;;5018327;28;20212;-66
2022/01/02 08:28:25;;;;;;;12.70;7.93;;;;;;;;;;5035894;28;20396;-65
2022/01/02 08:30:52;;;;;;;14.55;9.25;;;;;;;;;;5032787;28;20453;-70
2022/01/02 08:33:18;;;;;;;15.23;8.63;;;;;;;;;;5036111;28;20048;-71
2022/01/02 08:35:46;;;;;;;14.23;8.23;;;;;;;;;;5036689;28;20131;-67
2022/01/02 08:38:12;;;;;;;15.48;8.02;;;;;;;;;;5018331;28;20079;-68
2022/01/02 08:40:40;;;;;;;13.65;8.23;;;;;;;;;;5016249;28;20263;-68
2022/01/02 08:43:07;;;;;;;16.15;8.73;;;;;;;;;;5019580;28;20049;-67
2022/01/02 08:45:36;;;;;;;14.32;8.88;;;;;;;;;;5016914;28;20057;-67
2022/01/02 08:48:03;;;;;;;17.35;9.05;;;;;;;;;;5018184;28;20136;-69
2022/01/02 08:50:29;;;;;;;16.52;10.00;;;;;;;;;;5015625;28;21349;-66
2022/01/02 08:52:55;;;;;;;15.13;9.48;;;;;;;;;;5035748;28;20057;-68
2022/01/02 08:55:21;;;;;;;14.88;9.00;;;;;;;;;;5035191;28;20090;-67
2022/01/02 08:57:47;;;;;;;17.52;9.48;;;;;;;;;;5036144;28;20052;-65
2022/01/02 09:00:15;;;;;;;15.93;9.93;;;;;;;;;;5033270;28;20055;-64
2022/01/02 09:02:42;;;;;;;16.70;9.73;;;;;;;;;;5018990;28;20049;-66
2022/01/02 09:05:08;;;;;;;19.42;11.02;;;;;;;;;;5016675;28;20049;-69
2022/01/02 09:07:35;;;;;;;15.48;10.85;;;;;;;;;;5016975;28;20053;-73
2022/01/02 09:10:03;;;;;;;17.77;11.13;;;;;;;;;;5015872;28;20052;-70
2022/01/02 09:12:29;;;;;;;17.92;10.93;;;;;;;;;;5018708;28;20057;-69
2022/01/02 09:14:55;;;;;;;14.50;10.35;;;;;;;;;;5014927;28;20103;-69
2022/01/02 09:17:21;;;;;;;16.30;11.55;;;;;;;;;;5034169;28;20049;-65
2022/01/02 09:19:51;;;;;;;17.25;10.63;;;;;;;;;;5014417;28;20057;-65
2022/01/02 09:22:17;;;;;;;17.67;10.55;;;;;;;;;;5017930;28;20468;-68
2022/01/02 09:24:43;;;;;;;15.63;11.00;;;;;;;;;;5031412;28;20052;-71
2022/01/02 09:27:09;;;;;;;17.58;11.35;;;;;;;;;;4998378;28;20048;-69
2022/01/02 09:29:36;;;;;;;16.60;11.05;;;;;;;;;;5034201;28;20045;-70
2022/01/02 09:32:02;;;;;;;19.70;11.68;;;;;;;;;;5017874;28;20051;-74
2022/01/02 09:34:29;;;;;;;16.92;10.60;;;;;;;;;;5034649;28;20044;-70
2022/01/02 09:36:55;;;;;;;19.55;11.70;;;;;;;;;;5019452;28;20166;-70
2022/01/02 09:39:21;;;;;;;18.75;10.73;;;;;;;;;;5031144;28;20049;-72
2022/01/02 09:41:47;;;;;;;18.00;11.20;;;;;;;;;;5030927;28;20052;-68
2022/01/02 09:44:13;;;;;;;18.02;11.90;;;;;;;;;;5035689;28;20064;-71
2022/01/02 09:46:42;;;;;;;19.38;11.25;;;;;;;;;;5035555;28;20133;-68
2022/01/02 09:49:09;;;;;;;14.48;10.27;;;;;;;;;;5018276;28;20041;-71
2022/01/02 09:51:35;;;;;;;19.92;11.43;;;;;;;;;;5000413;28;20056;-70
2022/01/02 09:54:01;;;;;;;15.35;11.35;;;;;;;;;;5000552;28;20170;-65
2022/01/02 09:56:27;;;;;;;17.13;10.77;;;;;;;;;;5017492;28;20099;-65
2022/01/02 09:58:53;;;;;;;16.70;11.38;;;;;;;;;;5036280;28;20049;-66
2022/01/02 10:01:22;;;;;;;18.70;12.18;;;;;;;;;;5013666;28;20441;-67
2022/01/02 10:03:53;;;;;;;18.05;11.20;;;;;;;;;;5000379;28;20068;-68
2022/01/02 10:06:21;;;;;;;17.23;11.25;;;;;;;;;;5021736;28;20140;-67
2022/01/02 10:08:47;;;;;;;14.65;10.63;;;;;;;;;;5035460;28;20049;-69
2022/01/02 10:14:01;;;;;;;15.00;10.93;;;;;;;;;;5034537;28;20041;-72
2022/01/02 10:16:37;;;;;;;17.27;10.38;;;;;;;;;;5034427;28;20188;-65
2022/01/02 10:19:32;;;;;;;17.52;11.77;;;;;;;;;;5016584;28;20057;-68
2022/01/02 10:22:04;;;;;;;15.32;10.65;;;;;;;;;;5033599;28;20068;-67
2022/01/02 10:24:42;;;;;;;15.75;11.40;;;;;;;;;;5018837;28;20098;-66
2022/01/02 10:27:17;;;;;;;14.50;10.63;;;;;;;;;;4999909;28;20077;-69
2022/01/02 10:29:46;;;;;;;14.60;10.73;;;;;;;;;;5032005;28;20041;-71
2022/01/02 10:32:38;;;;;;;14.60;10.57;;;;;;;;;;5035234;28;20498;-71
2022/01/02 10:35:13;;;;;;;14.70;10.57;;;;;;;;;;5020447;28;20091;-73
2022/01/02 10:37:42;;;;;;;16.80;10.80;;;;;;;;;;5015097;28;20103;-73
2022/01/02 10:40:27;;;;;;;14.80;10.55;;;;;;;;;;5016526;28;20113;-73
2022/01/02 10:42:54;;;;;;;16.88;11.27;;;;;;;;;;5015873;28;20047;-71
2022/01/02 10:45:39;;;;;;;16.17;10.88;;;;;;;;;;5030277;28;20053;-74
2022/01/02 10:48:10;;;;;;;16.48;10.65;;;;;;;;;;5030631;28;20078;-70
2022/01/02 10:50:38;;;;;;;14.57;10.80;;;;;;;;;;4999124;28;20057;-72
2022/01/02 10:53:17;;;;;;;15.75;11.10;;;;;;;;;;5032411;28;20656;-73
2022/01/02 10:55:45;;;;;;;14.98;10.55;;;;;;;;;;5034433;28;20087;-71
2022/01/02 10:58:13;;;;;;;14.50;10.45;;;;;;;;;;5013204;28;20053;-72
2022/01/02 11:00:40;;;;;;;17.98;11.00;;;;;;;;;;5027440;28;20465;-69
2022/01/02 11:03:07;;;;;;;17.55;10.40;;;;;;;;;;4993972;28;20199;-72
2022/01/02 11:05:36;;;;;;;16.85;10.43;;;;;;;;;;5011679;28;20136;-64
2022/01/02 11:08:03;;;;;;;17.80;11.18;;;;;;;;;;5011005;28;20052;-68
2022/01/02 11:10:35;;;;;;;16.80;11.32;;;;;;;;;;5010900;28;20849;-67
2022/01/02 11:13:04;;;;;;;17.83;11.00;;;;;;;;;;5014035;28;20049;-65
2022/01/02 11:15:31;;;;;;;17.67;11.40;;;;;;;;;;4993707;28;20115;-66
2022/01/02 11:17:57;;;;;;;17.52;11.40;;;;;;;;;;5005935;28;20441;-71
2022/01/02 11:20:29;;;;;;;15.30;11.48;;;;;;;;;;5009095;28;20060;-67
2022/01/02 11:22:58;;;;;;;16.55;12.18;;;;;;;;;;5011585;28;20057;-66
2022/01/02 11:25:29;;;;;;;16.83;12.20;;;;;;;;;;5013323;28;20051;-70
2022/01/02 11:28:00;;;;;;;16.15;10.88;;;;;;;;;;5009052;28;20547;-69
2022/01/02 11:30:32;;;;;;;18.42;11.05;;;;;;;;;;5011779;28;20605;-71
2022/01/02 11:33:03;;;;;;;17.52;11.18;;;;;;;;;;4995213;28;20057;-66
2022/01/02 11:35:33;;;;;;;16.67;11.18;;;;;;;;;;5013894;28;20065;-69
2022/01/02 11:38:03;;;;;;;18.13;11.70;;;;;;;;;;5012461;28;20492;-70
2022/01/02 11:40:58;;;;;;;17.60;11.35;;;;;;;;;;5012177;28;20049;-65
2022/01/02 11:43:49;;;;;;;15.35;10.63;;;;;;;;;;5010565;28;20044;-70
2022/01/02 11:46:36;;;;;;;17.23;10.50;;;;;;;;;;5010882;28;20053;-70
2022/01/02 11:49:13;;;;;;;15.35;10.70;;;;;;;;;;5011830;28;20061;-65
2022/01/02 11:51:48;;;;;;;18.23;11.68;;;;;;;;;;5009879;28;20053;-69
2022/01/02 11:54:33;;;;;;;13.93;9.90;;;;;;;;;;4994376;28;20049;-70
2022/01/02 11:57:02;;;;;;;17.00;11.73;;;;;;;;;;5013100;28;20053;-65
2022/01/02 11:59:47;;;;;;;18.05;10.18;;;;;;;;;;5008360;28;20061;-66
2022/01/02 12:02:13;;;;;;;16.58;10.45;;;;;;;;;;4994124;28;20057;-66
2022/01/02 12:07:36;;;;;;;14.75;11.27;;;;;;;;;;5011761;28;20058;-65
2022/01/02 12:12:56;;;;;;;24.45;14.65;;;;;;;;;;5014027;28;20068;-69
2022/01/02 12:15:24;;;;;;;24.13;14.60;;;;;;;;;;5008610;28;20050;-66
2022/01/02 12:18:15;;;;;;;17.45;11.20;;;;;;;;;;5012367;28;20038;-69
2022/01/02 12:20:50;;;;;;;22.38;11.90;;;;;;;;;;5010273;28;20088;-69
2022/01/02 12:23:40;;;;;;;17.00;11.35;;;;;;;;;;5001713;28;20622;-68
2022/01/02 12:26:11;;;;;;;21.83;12.35;;;;;;;;;;4994034;28;21308;-66
2022/01/02 12:28:42;;;;;;;17.92;10.90;;;;;;;;;;5012066;28;20053;-70
2022/01/02 12:31:11;;;;;;;18.38;11.25;;;;;;;;;;5009868;28;20069;-69
2022/01/02 12:33:38;;;;;;;18.48;12.43;;;;;;;;;;5008174;28;20045;-68
2022/01/02 12:36:19;;;;;;;22.85;13.60;;;;;;;;;;5012925;28;20774;-67
2022/01/02 12:38:55;;;;;;;18.48;11.95;;;;;;;;;;5012729;28;20042;-71
2022/01/02 12:41:27;;;;;;;21.27;11.93;;;;;;;;;;5005975;28;20133;-66
2022/01/02 12:43:56;;;;;;;14.82;10.43;;;;;;;;;;5016841;28;20049;-65
2022/01/02 12:46:41;;;;;;;21.80;11.60;;;;;;;;;;5015349;28;20100;-67
2022/01/02 12:49:09;;;;;;;;;;;;;;;;;;5016069;28;20050;-67
2022/01/02 12:51:39;;;;;;;19.63;12.07;;;;;;;;;;4995691;28;20549;-64
2022/01/02 12:54:07;;;;;;;19.98;11.98;;;;;;;;;;5031085;28;20057;-68
2022/01/02 12:56:45;;;;;;;15.65;11.23;;;;;;;;;;5006562;28;20053;-64
2022/01/02 12:59:17;;;;;;;23.23;14.30;;;;;;;;;;4997342;28;20199;-69
2022/01/02 13:01:55;;;;;;;20.85;12.23;;;;;;;;;;5013763;28;20045;-71
2022/01/02 13:04:26;;;;;;;17.95;12.40;;;;;;;;;;5008896;28;20051;-67
2022/01/02 13:06:54;;;;;;;21.73;12.18;;;;;;;;;;5014284;28;20088;-68
2022/01/02 13:09:36;;;;;;;15.65;11.93;;;;;;;;;;5009996;28;20049;-71
2022/01/02 13:12:08;;;;;;;16.33;11.45;;;;;;;;;;5013012;28;20046;-68
2022/01/02 13:14:45;;;;;;;16.40;11.65;;;;;;;;;;5013610;28;20038;-67
2022/01/02 13:17:16;;;;;;;19.02;11.77;;;;;;;;;;5012282;28;20057;-69
2022/01/02 13:19:46;;;;;;;15.38;11.10;;;;;;;;;;5008906;28;20148;-69
2022/01/02 13:22:23;;;;;;;26.27;15.40;;;;;;;;;;5016959;28;20065;-70
2022/01/02 13:24:53;;;;;;;22.88;13.88;;;;;;;;;;5017908;28;20495;-66
2022/01/02 13:27:21;;;;;;;19.08;12.35;;;;;;;;;;5017741;28;20053;-70
2022/01/02 13:29:59;;;;;;;18.65;12.48;;;;;;;;;;5011446;28;20057;-68
2022/01/02 13:32:29;;;;;;;19.85;12.52;;;;;;;;;;5009696;28;20051;-67
2022/01/02 13:35:12;;;;;;;17.80;12.52;;;;;;;;;;5009693;28;20081;-67
2022/01/02 13:37:44;;;;;;;20.05;12.98;;;;;;;;;;5011442;28;20643;-69
2022/01/02 13:40:28;;;;;;;19.35;12.45;;;;;;;;;;5010960;28;20431;-70
2022/01/02 13:42:55;;;;;;;17.95;12.70;;;;;;;;;;5014687;28;20553;-66
2022/01/02 13:45:32;;;;;;;20.35;13.65;;;;;;;;;;5012909;28;20148;-68
2022/01/02 13:48:11;;;;;;;19.02;12.52;;;;;;;;;;5013442;28;20514;-66
2022/01/02 13:50:42;;;;;;;19.67;13.40;;;;;;;;;;5013271;28;20081;-70
2022/01/02 13:53:22;;;;;;;17.73;12.77;;;;;;;;;;4993869;28;20053;-72
2022/01/02 13:55:52;;;;;;;18.13;13.00;;;;;;;;;;5007507;28;20237;-68
2022/01/02 13:58:25;;;;;;;20.20;13.43;;;;;;;;;;5008671;28;20058;-68
2022/01/02 14:00:57;;;;;;;19.88;14.32;;;;;;;;;;5008171;28;20479;-68
2022/01/02 14:03:35;;;;;;;20.38;14.68;;;;;;;;;;5012796;28;20069;-67
2022/01/02 14:06:06;;;;;;;21.45;14.80;;;;;;;;;;5033664;28;20063;-67
2022/01/02 14:08:46;;;;;;;20.10;13.18;;;;;;;;;;5013773;28;20341;-71
2022/01/02 14:11:27;;;;;;;21.23;14.52;;;;;;;;;;4999084;28;20053;-69
2022/01/02 14:14:08;;;;;;;20.55;14.35;;;;;;;;;;5015469;28;20056;-67
2022/01/02 14:19:44;;;;;;;20.50;13.82;;;;;;;;;;5035648;28;20686;-70
2022/01/02 14:22:16;;;;;;;23.83;13.23;;;;;;;;;;5017715;28;20209;-73
2022/01/02 14:24:43;;;;;;;21.30;12.93;;;;;;;;;;5037089;28;20041;-74
2022/01/02 14:27:14;;;;;;;20.00;13.07;;;;;;;;;;5035133;28;20072;-70
2022/01/02 14:29:40;;;;;;;16.52;12.52;;;;;;;;;;5034979;28;20060;-74
2022/01/02 14:32:06;;;;;;;16.23;11.77;;;;;;;;;;5029391;28;20713;-71
2022/01/02 14:34:32;;;;;;;18.98;12.40;;;;;;;;;;5027043;28;20051;-74
2022/01/02 14:36:58;;;;;;;18.92;12.05;;;;;;;;;;5021345;28;20119;-72
2022/01/02 14:39:25;;;;;;;17.58;11.73;;;;;;;;;;5028359;28;20107;-74
2022/01/02 14:41:51;;;;;;;16.45;11.98;;;;;;;;;;5031181;28;20502;-71
2022/01/02 14:44:18;;;;;;;17.58;12.52;;;;;;;;;;5032854;28;20441;-73
2022/01/02 14:46:45;;;;;;;17.40;11.63;;;;;;;;;;4999887;28;20081;-74
2022/01/02 14:49:12;;;;;;;18.08;10.73;;;;;;;;;;5016296;28;20110;-75
2022/01/02 14:51:39;;;;;;;15.10;11.52;;;;;;;;;;5033036;28;20056;-70
2022/01/02 14:54:06;;;;;;;20.27;12.43;;;;;;;;;;5033139;28;20453;-71